sensor_id;sensor_type;location;lat;lon;timestamp;P1;durP1;ratioP1;P2;durP2;ratioP2
63975;SDS011;50167;47.958;21.780;2024-01-07T00:00:19;10.73;;;8.53;;
63975;SDS011;50167;47.958;21.780;2024-01-07T00:02:46;10.23;;;8.13;;
63975;SDS011;50167;47.958;21.780;2024-01-07T00:05:12;11.53;;;8.57;;
63975;SDS011;50167;47.958;21.780;2024-01-07T00:07:38;11.23;;;7.83;;
63975;SDS011;50167;47.958;21.780;2024-01-07T00:10:05;9.23;;;7.80;;
63975;SDS011;50167;47.958;21.780;2024-01-07T00:12:31;10.47;;;8.40;;
63975;SDS011;50167;47.958;21.780;2024-01-07T00:14:57;11.17;;;8.27;;
63975;SDS011;50167;47.958;21.780;2024-01-07T00:17:24;10.63;;;8.33;;
63975;SDS011;50167;47.958;21.780;2024-01-07T00:19:50;10.73;;;7.97;;
63975;SDS011;50167;47.958;21.780;2024-01-07T00:22:16;12.23;;;9.77;;
63975;SDS011;50167;47.958;21.780;2024-01-07T00:24:43;12.67;;;9.77;;
63975;SDS011;50167;47.958;21.780;2024-01-07T00:27:09;13.53;;;9.50;;
63975;SDS011;50167;47.958;21.780;2024-01-07T00:29:36;12.97;;;9.17;;
63975;SDS011;50167;47.958;21.780;2024-01-07T00:32:02;12.10;;;9.53;;
63975;SDS011;50167;47.958;21.780;2024-01-07T00:34:29;12.63;;;9.00;;
63975;SDS011;50167;47.958;21.780;2024-01-07T00:36:55;13.90;;;9.23;;
63975;SDS011;50167;47.958;21.780;2024-01-07T00:39:21;12.23;;;8.83;;
63975;SDS011;50167;47.958;21.780;2024-01-07T00:41:47;12.70;;;8.83;;
63975;SDS011;50167;47.958;21.780;2024-01-07T00:44:13;11.47;;;9.27;;
63975;SDS011;50167;47.958;21.780;2024-01-07T00:46:39;10.90;;;8.27;;
63975;SDS011;50167;47.958;21.780;2024-01-07T00:49:06;11.60;;;8.87;;
63975;SDS011;50167;47.958;21.780;2024-01-07T00:51:32;12.23;;;8.97;;
63975;SDS011;50167;47.958;21.780;2024-01-07T00:53:58;11.80;;;9.30;;
63975;SDS011;50167;47.958;21.780;2024-01-07T00:56:27;11.33;;;8.67;;
63975;SDS011;50167;47.958;21.780;2024-01-07T00:58:54;12.47;;;8.77;;
63975;SDS011;50167;47.958;21.780;2024-01-07T01:01:20;14.23;;;9.50;;
63975;SDS011;50167;47.958;21.780;2024-01-07T01:03:46;14.20;;;9.20;;
63975;SDS011;50167;47.958;21.780;2024-01-07T01:06:12;14.80;;;8.87;;
63975;SDS011;50167;47.958;21.780;2024-01-07T01:08:39;11.87;;;9.10;;
63975;SDS011;50167;47.958;21.780;2024-01-07T01:11:08;14.47;;;10.20;;
63975;SDS011;50167;47.958;21.780;2024-01-07T01:13:36;14.70;;;10.58;;
63975;SDS011;50167;47.958;21.780;2024-01-07T01:16:03;12.53;;;8.77;;
63975;SDS011;50167;47.958;21.780;2024-01-07T01:18:32;13.33;;;9.43;;
63975;SDS011;50167;47.958;21.780;2024-01-07T01:20:58;14.60;;;9.27;;
63975;SDS011;50167;47.958;21.780;2024-01-07T01:23:24;11.83;;;9.00;;
63975;SDS011;50167;47.958;21.780;2024-01-07T01:25:50;10.83;;;8.07;;
63975;SDS011;50167;47.958;21.780;2024-01-07T01:28:17;8.40;;;7.13;;
63975;SDS011;50167;47.958;21.780;2024-01-07T01:30:43;11.23;;;8.10;;
63975;SDS011;50167;47.958;21.780;2024-01-07T01:33:09;10.53;;;8.30;;
63975;SDS011;50167;47.958;21.780;2024-01-07T01:35:35;9.93;;;7.40;;
63975;SDS011;50167;47.958;21.780;2024-01-07T01:38:01;10.73;;;7.90;;
63975;SDS011;50167;47.958;21.780;2024-01-07T01:40:27;10.20;;;7.53;;
63975;SDS011;50167;47.958;21.780;2024-01-07T01:42:53;8.87;;;7.80;;
63975;SDS011;50167;47.958;21.780;2024-01-07T01:45:20;13.67;;;7.73;;
63975;SDS011;50167;47.958;21.780;2024-01-07T01:47:46;13.73;;;8.27;;
63975;SDS011;50167;47.958;21.780;2024-01-07T01:50:14;11.50;;;7.43;;
63975;SDS011;50167;47.958;21.780;2024-01-07T01:52:41;12.17;;;8.40;;
63975;SDS011;50167;47.958;21.780;2024-01-07T01:55:09;9.67;;;7.97;;
63975;SDS011;50167;47.958;21.780;2024-01-07T01:57:37;9.30;;;7.17;;
63975;SDS011;50167;47.958;21.780;2024-01-07T02:00:05;11.17;;;7.87;;
63975;SDS011;50167;47.958;21.780;2024-01-07T02:02:34;9.30;;;8.27;;
63975;SDS011;50167;47.958;21.780;2024-01-07T02:05:00;9.60;;;8.13;;
63975;SDS011;50167;47.958;21.780;2024-01-07T02:07:28;11.43;;;8.47;;
63975;SDS011;50167;47.958;21.780;2024-01-07T02:09:56;9.30;;;7.87;;
63975;SDS011;50167;47.958;21.780;2024-01-07T02:12:22;11.77;;;6.97;;
63975;SDS011;50167;47.958;21.780;2024-01-07T02:14:48;9.00;;;7.17;;
63975;SDS011;50167;47.958;21.780;2024-01-07T02:17:15;9.93;;;7.57;;
63975;SDS011;50167;47.958;21.780;2024-01-07T02:19:41;8.50;;;7.43;;
63975;SDS011;50167;47.958;21.780;2024-01-07T02:22:08;9.20;;;7.37;;
63975;SDS011;50167;47.958;21.780;2024-01-07T02:24:34;9.63;;;7.13;;
63975;SDS011;50167;47.958;21.780;2024-01-07T02:27:00;8.27;;;6.53;;
63975;SDS011;50167;47.958;21.780;2024-01-07T02:29:28;9.00;;;7.07;;
63975;SDS011;50167;47.958;21.780;2024-01-07T02:31:54;10.07;;;7.53;;
63975;SDS011;50167;47.958;21.780;2024-01-07T02:34:21;8.77;;;6.40;;
63975;SDS011;50167;47.958;21.780;2024-01-07T02:36:47;7.93;;;6.80;;
63975;SDS011;50167;47.958;21.780;2024-01-07T02:39:13;6.53;;;5.73;;
63975;SDS011;50167;47.958;21.780;2024-01-07T02:41:39;7.57;;;6.53;;
63975;SDS011;50167;47.958;21.780;2024-01-07T02:44:05;7.83;;;5.90;;
63975;SDS011;50167;47.958;21.780;2024-01-07T02:46:31;8.90;;;5.97;;
63975;SDS011;50167;47.958;21.780;2024-01-07T02:48:58;8.47;;;7.17;;
63975;SDS011;50167;47.958;21.780;2024-01-07T02:51:24;7.93;;;5.87;;
63975;SDS011;50167;47.958;21.780;2024-01-07T02:53:50;8.20;;;6.60;;
63975;SDS011;50167;47.958;21.780;2024-01-07T02:56:16;9.23;;;6.30;;
63975;SDS011;50167;47.958;21.780;2024-01-07T02:58:42;7.30;;;5.17;;
63975;SDS011;50167;47.958;21.780;2024-01-07T03:01:08;6.83;;;5.90;;
63975;SDS011;50167;47.958;21.780;2024-01-07T03:03:35;5.93;;;5.10;;
63975;SDS011;50167;47.958;21.780;2024-01-07T03:06:02;7.00;;;5.50;;
63975;SDS011;50167;47.958;21.780;2024-01-07T03:08:28;7.50;;;5.77;;
63975;SDS011;50167;47.958;21.780;2024-01-07T03:10:55;7.40;;;6.20;;
63975;SDS011;50167;47.958;21.780;2024-01-07T03:13:21;5.37;;;4.83;;
63975;SDS011;50167;47.958;21.780;2024-01-07T03:15:47;9.67;;;6.73;;
63975;SDS011;50167;47.958;21.780;2024-01-07T03:18:13;8.23;;;6.33;;
63975;SDS011;50167;47.958;21.780;2024-01-07T03:20:39;8.17;;;6.23;;
63975;SDS011;50167;47.958;21.780;2024-01-07T03:23:05;27.37;;;19.00;;
63975;SDS011;50167;47.958;21.780;2024-01-07T03:25:31;9.80;;;7.43;;
63975;SDS011;50167;47.958;21.780;2024-01-07T03:27:57;16.90;;;10.67;;
63975;SDS011;50167;47.958;21.780;2024-01-07T03:30:23;10.60;;;7.03;;
63975;SDS011;50167;47.958;21.780;2024-01-07T03:32:49;7.50;;;5.53;;
63975;SDS011;50167;47.958;21.780;2024-01-07T03:35:15;6.97;;;6.27;;
63975;SDS011;50167;47.958;21.780;2024-01-07T03:37:41;6.93;;;4.77;;
63975;SDS011;50167;47.958;21.780;2024-01-07T03:40:11;5.70;;;4.63;;
63975;SDS011;50167;47.958;21.780;2024-01-07T03:42:37;8.00;;;4.87;;
63975;SDS011;50167;47.958;21.780;2024-01-07T03:45:04;4.97;;;4.37;;
63975;SDS011;50167;47.958;21.780;2024-01-07T03:47:31;10.77;;;5.53;;
63975;SDS011;50167;47.958;21.780;2024-01-07T03:49:57;6.07;;;5.03;;
63975;SDS011;50167;47.958;21.780;2024-01-07T03:52:23;5.23;;;4.33;;
63975;SDS011;50167;47.958;21.780;2024-01-07T03:54:49;6.57;;;5.00;;
63975;SDS011;50167;47.958;21.780;2024-01-07T03:57:16;7.13;;;4.87;;
63975;SDS011;50167;47.958;21.780;2024-01-07T03:59:42;10.63;;;7.67;;
63975;SDS011;50167;47.958;21.780;2024-01-07T04:02:08;5.90;;;4.43;;
63975;SDS011;50167;47.958;21.780;2024-01-07T04:04:35;5.67;;;3.80;;
63975;SDS011;50167;47.958;21.780;2024-01-07T04:07:01;6.57;;;3.63;;
63975;SDS011;50167;47.958;21.780;2024-01-07T04:09:27;5.50;;;3.43;;
63975;SDS011;50167;47.958;21.780;2024-01-07T04:11:53;8.27;;;5.13;;
63975;SDS011;50167;47.958;21.780;2024-01-07T04:14:20;3.97;;;3.23;;
63975;SDS011;50167;47.958;21.780;2024-01-07T04:16:46;5.47;;;3.73;;
63975;SDS011;50167;47.958;21.780;2024-01-07T04:19:12;5.03;;;3.77;;
63975;SDS011;50167;47.958;21.780;2024-01-07T04:21:38;3.80;;;3.23;;
63975;SDS011;50167;47.958;21.780;2024-01-07T04:24:05;6.83;;;3.30;;
63975;SDS011;50167;47.958;21.780;2024-01-07T04:26:31;4.17;;;3.47;;
63975;SDS011;50167;47.958;21.780;2024-01-07T04:28:57;4.47;;;3.53;;
63975;SDS011;50167;47.958;21.780;2024-01-07T04:31:23;7.67;;;3.40;;
63975;SDS011;50167;47.958;21.780;2024-01-07T04:33:49;4.13;;;2.87;;
63975;SDS011;50167;47.958;21.780;2024-01-07T04:36:15;5.13;;;2.90;;
63975;SDS011;50167;47.958;21.780;2024-01-07T04:38:41;4.70;;;3.20;;
63975;SDS011;50167;47.958;21.780;2024-01-07T04:41:07;3.80;;;2.37;;
63975;SDS011;50167;47.958;21.780;2024-01-07T04:43:34;7.80;;;4.70;;
63975;SDS011;50167;47.958;21.780;2024-01-07T04:46:01;8.20;;;3.93;;
63975;SDS011;50167;47.958;21.780;2024-01-07T04:48:28;3.33;;;2.60;;
63975;SDS011;50167;47.958;21.780;2024-01-07T04:50:54;7.60;;;2.37;;
63975;SDS011;50167;47.958;21.780;2024-01-07T04:53:20;5.87;;;3.00;;
63975;SDS011;50167;47.958;21.780;2024-01-07T04:55:46;3.27;;;2.30;;
63975;SDS011;50167;47.958;21.780;2024-01-07T04:58:12;2.37;;;1.97;;
63975;SDS011;50167;47.958;21.780;2024-01-07T05:00:38;3.30;;;2.20;;
63975;SDS011;50167;47.958;21.780;2024-01-07T05:03:04;3.87;;;2.47;;
63975;SDS011;50167;47.958;21.780;2024-01-07T05:05:31;2.50;;;2.20;;
63975;SDS011;50167;47.958;21.780;2024-01-07T05:07:57;3.50;;;2.60;;
63975;SDS011;50167;47.958;21.780;2024-01-07T05:10:25;6.63;;;2.40;;
63975;SDS011;50167;47.958;21.780;2024-01-07T05:12:51;4.07;;;2.70;;
63975;SDS011;50167;47.958;21.780;2024-01-07T05:15:17;5.07;;;2.53;;
63975;SDS011;50167;47.958;21.780;2024-01-07T05:17:43;2.37;;;1.83;;
63975;SDS011;50167;47.958;21.780;2024-01-07T05:20:10;2.97;;;2.13;;
63975;SDS011;50167;47.958;21.780;2024-01-07T05:22:36;2.80;;;2.10;;
63975;SDS011;50167;47.958;21.780;2024-01-07T05:25:03;2.70;;;1.90;;
63975;SDS011;50167;47.958;21.780;2024-01-07T05:27:30;2.87;;;1.80;;
63975;SDS011;50167;47.958;21.780;2024-01-07T05:29:56;5.40;;;2.50;;
63975;SDS011;50167;47.958;21.780;2024-01-07T05:32:22;2.80;;;1.80;;
63975;SDS011;50167;47.958;21.780;2024-01-07T05:34:48;5.53;;;2.90;;
63975;SDS011;50167;47.958;21.780;2024-01-07T05:37:15;1.67;;;1.10;;
63975;SDS011;50167;47.958;21.780;2024-01-07T05:39:42;12.83;;;6.30;;
63975;SDS011;50167;47.958;21.780;2024-01-07T05:42:08;6.37;;;3.43;;
63975;SDS011;50167;47.958;21.780;2024-01-07T05:44:35;6.87;;;3.07;;
63975;SDS011;50167;47.958;21.780;2024-01-07T05:47:01;4.53;;;2.50;;
63975;SDS011;50167;47.958;21.780;2024-01-07T05:49:29;3.00;;;1.70;;
63975;SDS011;50167;47.958;21.780;2024-01-07T05:51:55;4.50;;;1.63;;
63975;SDS011;50167;47.958;21.780;2024-01-07T05:54:21;2.97;;;1.87;;
63975;SDS011;50167;47.958;21.780;2024-01-07T05:56:48;2.60;;;1.77;;
63975;SDS011;50167;47.958;21.780;2024-01-07T05:59:14;2.53;;;1.57;;
63975;SDS011;50167;47.958;21.780;2024-01-07T06:01:40;2.10;;;1.70;;
63975;SDS011;50167;47.958;21.780;2024-01-07T06:04:06;1.40;;;0.90;;
63975;SDS011;50167;47.958;21.780;2024-01-07T06:06:32;1.30;;;1.07;;
63975;SDS011;50167;47.958;21.780;2024-01-07T06:08:59;1.30;;;0.80;;
63975;SDS011;50167;47.958;21.780;2024-01-07T06:11:27;1.20;;;1.07;;
63975;SDS011;50167;47.958;21.780;2024-01-07T06:13:53;1.30;;;0.90;;
63975;SDS011;50167;47.958;21.780;2024-01-07T06:16:19;2.83;;;1.23;;
63975;SDS011;50167;47.958;21.780;2024-01-07T06:18:45;2.10;;;1.00;;
63975;SDS011;50167;47.958;21.780;2024-01-07T06:21:11;1.17;;;0.90;;
63975;SDS011;50167;47.958;21.780;2024-01-07T06:23:37;1.60;;;1.00;;
63975;SDS011;50167;47.958;21.780;2024-01-07T06:26:03;1.23;;;0.70;;
63975;SDS011;50167;47.958;21.780;2024-01-07T06:28:31;1.77;;;1.20;;
63975;SDS011;50167;47.958;21.780;2024-01-07T06:30:58;1.47;;;0.93;;
63975;SDS011;50167;47.958;21.780;2024-01-07T06:33:27;0.63;;;0.50;;
63975;SDS011;50167;47.958;21.780;2024-01-07T06:35:53;1.27;;;0.63;;
63975;SDS011;50167;47.958;21.780;2024-01-07T06:38:19;2.57;;;1.57;;
63975;SDS011;50167;47.958;21.780;2024-01-07T06:40:45;2.20;;;1.20;;
63975;SDS011;50167;47.958;21.780;2024-01-07T06:43:11;2.07;;;1.37;;
63975;SDS011;50167;47.958;21.780;2024-01-07T06:45:37;2.57;;;1.00;;
63975;SDS011;50167;47.958;21.780;2024-01-07T06:48:04;1.43;;;0.83;;
63975;SDS011;50167;47.958;21.780;2024-01-07T06:50:32;0.60;;;0.60;;
63975;SDS011;50167;47.958;21.780;2024-01-07T06:52:58;2.00;;;1.20;;
63975;SDS011;50167;47.958;21.780;2024-01-07T06:55:24;1.60;;;0.57;;
63975;SDS011;50167;47.958;21.780;2024-01-07T06:57:50;1.30;;;0.60;;
63975;SDS011;50167;47.958;21.780;2024-01-07T07:00:16;0.87;;;0.70;;
63975;SDS011;50167;47.958;21.780;2024-01-07T07:02:43;0.70;;;0.47;;
63975;SDS011;50167;47.958;21.780;2024-01-07T07:05:09;1.20;;;0.70;;
63975;SDS011;50167;47.958;21.780;2024-01-07T07:07:35;0.80;;;0.53;;
63975;SDS011;50167;47.958;21.780;2024-01-07T07:10:01;1.57;;;1.10;;
63975;SDS011;50167;47.958;21.780;2024-01-07T07:12:29;22.40;;;6.93;;
63975;SDS011;50167;47.958;21.780;2024-01-07T07:14:55;22.27;;;7.10;;
63975;SDS011;50167;47.958;21.780;2024-01-07T07:17:22;9.40;;;3.50;;
63975;SDS011;50167;47.958;21.780;2024-01-07T07:19:48;15.40;;;6.27;;
63975;SDS011;50167;47.958;21.780;2024-01-07T07:22:14;9.77;;;4.87;;
63975;SDS011;50167;47.958;21.780;2024-01-07T07:24:41;8.47;;;3.60;;
63975;SDS011;50167;47.958;21.780;2024-01-07T07:27:07;1.90;;;0.87;;
63975;SDS011;50167;47.958;21.780;2024-01-07T07:29:34;1.40;;;0.93;;
63975;SDS011;50167;47.958;21.780;2024-01-07T07:32:00;12.47;;;6.67;;
63975;SDS011;50167;47.958;21.780;2024-01-07T07:34:26;8.10;;;4.03;;
63975;SDS011;50167;47.958;21.780;2024-01-07T07:36:53;6.57;;;3.43;;
63975;SDS011;50167;47.958;21.780;2024-01-07T07:39:19;3.43;;;2.00;;
63975;SDS011;50167;47.958;21.780;2024-01-07T07:41:45;1.17;;;0.90;;
63975;SDS011;50167;47.958;21.780;2024-01-07T07:44:11;1.83;;;0.90;;
63975;SDS011;50167;47.958;21.780;2024-01-07T07:46:37;1.13;;;0.90;;
63975;SDS011;50167;47.958;21.780;2024-01-07T07:49:04;3.87;;;1.00;;
63975;SDS011;50167;47.958;21.780;2024-01-07T07:51:32;2.53;;;1.70;;
63975;SDS011;50167;47.958;21.780;2024-01-07T07:53:58;2.77;;;1.90;;
63975;SDS011;50167;47.958;21.780;2024-01-07T07:56:24;1.30;;;0.80;;
63975;SDS011;50167;47.958;21.780;2024-01-07T07:58:50;1.00;;;0.80;;
63975;SDS011;50167;47.958;21.780;2024-01-07T08:01:17;1.87;;;0.90;;
63975;SDS011;50167;47.958;21.780;2024-01-07T08:03:44;1.90;;;1.23;;
63975;SDS011;50167;47.958;21.780;2024-01-07T08:06:13;2.00;;;1.20;;
63975;SDS011;50167;47.958;21.780;2024-01-07T08:08:39;3.43;;;2.17;;
63975;SDS011;50167;47.958;21.780;2024-01-07T08:11:05;5.30;;;1.37;;
63975;SDS011;50167;47.958;21.780;2024-01-07T08:13:34;2.40;;;1.43;;
63975;SDS011;50167;47.958;21.780;2024-01-07T08:16:03;2.13;;;1.40;;
63975;SDS011;50167;47.958;21.780;2024-01-07T08:18:35;1.80;;;1.33;;
63975;SDS011;50167;47.958;21.780;2024-01-07T08:21:01;2.90;;;1.80;;
63975;SDS011;50167;47.958;21.780;2024-01-07T08:23:27;1.93;;;1.47;;
63975;SDS011;50167;47.958;21.780;2024-01-07T08:25:54;3.93;;;1.57;;
63975;SDS011;50167;47.958;21.780;2024-01-07T08:28:20;3.10;;;1.47;;
63975;SDS011;50167;47.958;21.780;2024-01-07T08:30:46;13.27;;;5.10;;
63975;SDS011;50167;47.958;21.780;2024-01-07T08:33:14;3.13;;;1.67;;
63975;SDS011;50167;47.958;21.780;2024-01-07T08:35:40;11.03;;;4.77;;
63975;SDS011;50167;47.958;21.780;2024-01-07T08:38:07;7.23;;;3.13;;
63975;SDS011;50167;47.958;21.780;2024-01-07T08:40:33;6.00;;;2.77;;
63975;SDS011;50167;47.958;21.780;2024-01-07T08:42:59;4.67;;;2.37;;
63975;SDS011;50167;47.958;21.780;2024-01-07T08:45:25;2.40;;;1.83;;
63975;SDS011;50167;47.958;21.780;2024-01-07T08:47:51;3.03;;;1.73;;
63975;SDS011;50167;47.958;21.780;2024-01-07T08:50:17;4.37;;;2.13;;
63975;SDS011;50167;47.958;21.780;2024-01-07T08:52:44;5.83;;;2.50;;
63975;SDS011;50167;47.958;21.780;2024-01-07T08:55:11;2.07;;;1.37;;
63975;SDS011;50167;47.958;21.780;2024-01-07T08:57:38;2.73;;;1.43;;
63975;SDS011;50167;47.958;21.780;2024-01-07T09:00:05;2.60;;;1.73;;
63975;SDS011;50167;47.958;21.780;2024-01-07T09:02:33;1.80;;;1.60;;
63975;SDS011;50167;47.958;21.780;2024-01-07T09:04:59;5.23;;;1.63;;
63975;SDS011;50167;47.958;21.780;2024-01-07T09:07:25;2.70;;;1.60;;
63975;SDS011;50167;47.958;21.780;2024-01-07T09:09:52;3.63;;;2.03;;
63975;SDS011;50167;47.958;21.780;2024-01-07T09:12:20;2.43;;;1.60;;
63975;SDS011;50167;47.958;21.780;2024-01-07T09:14:46;2.60;;;1.60;;
63975;SDS011;50167;47.958;21.780;2024-01-07T09:17:12;2.83;;;1.50;;
63975;SDS011;50167;47.958;21.780;2024-01-07T09:19:38;2.10;;;1.30;;
63975;SDS011;50167;47.958;21.780;2024-01-07T09:22:04;3.40;;;2.07;;
63975;SDS011;50167;47.958;21.780;2024-01-07T09:24:31;3.40;;;1.90;;
63975;SDS011;50167;47.958;21.780;2024-01-07T09:26:57;1.97;;;1.30;;
63975;SDS011;50167;47.958;21.780;2024-01-07T09:29:23;2.87;;;1.40;;
63975;SDS011;50167;47.958;21.780;2024-01-07T09:31:49;3.43;;;1.67;;
63975;SDS011;50167;47.958;21.780;2024-01-07T09:34:15;4.07;;;1.97;;
63975;SDS011;50167;47.958;21.780;2024-01-07T09:36:46;2.33;;;1.47;;
63975;SDS011;50167;47.958;21.780;2024-01-07T09:39:12;1.77;;;1.20;;
63975;SDS011;50167;47.958;21.780;2024-01-07T09:41:39;3.23;;;2.30;;
63975;SDS011;50167;47.958;21.780;2024-01-07T09:44:05;4.60;;;2.00;;
63975;SDS011;50167;47.958;21.780;2024-01-07T09:46:33;3.13;;;1.70;;
63975;SDS011;50167;47.958;21.780;2024-01-07T09:49:02;2.47;;;1.90;;
63975;SDS011;50167;47.958;21.780;2024-01-07T09:51:28;9.70;;;2.53;;
63975;SDS011;50167;47.958;21.780;2024-01-07T09:53:58;2.40;;;1.87;;
63975;SDS011;50167;47.958;21.780;2024-01-07T09:56:32;5.73;;;2.47;;
63975;SDS011;50167;47.958;21.780;2024-01-07T09:59:03;3.17;;;2.33;;
63975;SDS011;50167;47.958;21.780;2024-01-07T10:01:30;2.30;;;1.93;;
63975;SDS011;50167;47.958;21.780;2024-01-07T10:03:58;3.17;;;2.00;;
63975;SDS011;50167;47.958;21.780;2024-01-07T10:06:24;5.07;;;2.73;;
63975;SDS011;50167;47.958;21.780;2024-01-07T10:08:51;4.83;;;3.03;;
63975;SDS011;50167;47.958;21.780;2024-01-07T10:13:55;2.40;;;1.80;;
63975;SDS011;50167;47.958;21.780;2024-01-07T10:16:21;2.70;;;1.90;;
63975;SDS011;50167;47.958;21.780;2024-01-07T10:18:48;4.03;;;2.30;;
63975;SDS011;50167;47.958;21.780;2024-01-07T10:21:14;2.37;;;1.67;;
63975;SDS011;50167;47.958;21.780;2024-01-07T10:23:40;3.33;;;1.90;;
63975;SDS011;50167;47.958;21.780;2024-01-07T10:26:06;2.83;;;2.40;;
63975;SDS011;50167;47.958;21.780;2024-01-07T10:28:32;2.67;;;1.90;;
63975;SDS011;50167;47.958;21.780;2024-01-07T10:30:59;2.50;;;1.97;;
63975;SDS011;50167;47.958;21.780;2024-01-07T10:33:30;3.40;;;2.10;;
63975;SDS011;50167;47.958;21.780;2024-01-07T10:36:05;2.40;;;1.60;;
63975;SDS011;50167;47.958;21.780;2024-01-07T10:38:29;3.52;;;2.30;;
63975;SDS011;50167;47.958;21.780;2024-01-07T10:40:55;7.97;;;2.90;;
63975;SDS011;50167;47.958;21.780;2024-01-07T10:43:24;2.83;;;2.10;;
63975;SDS011;50167;47.958;21.780;2024-01-07T10:45:54;2.80;;;2.10;;
63975;SDS011;50167;47.958;21.780;2024-01-07T10:48:21;2.90;;;2.27;;
63975;SDS011;50167;47.958;21.780;2024-01-07T10:50:51;3.22;;;2.00;;
63975;SDS011;50167;47.958;21.780;2024-01-07T10:53:21;3.23;;;2.30;;
63975;SDS011;50167;47.958;21.780;2024-01-07T10:55:59;2.70;;;1.70;;
63975;SDS011;50167;47.958;21.780;2024-01-07T10:58:27;2.33;;;1.83;;
63975;SDS011;50167;47.958;21.780;2024-01-07T11:00:53;2.87;;;2.27;;
63975;SDS011;50167;47.958;21.780;2024-01-07T11:03:24;3.43;;;2.50;;
63975;SDS011;50167;47.958;21.780;2024-01-07T11:06:07;3.03;;;2.33;;
63975;SDS011;50167;47.958;21.780;2024-01-07T11:11:26;4.93;;;2.50;;
63975;SDS011;50167;47.958;21.780;2024-01-07T11:14:00;2.13;;;1.93;;
63975;SDS011;50167;47.958;21.780;2024-01-07T11:16:43;2.57;;;1.90;;
63975;SDS011;50167;47.958;21.780;2024-01-07T11:19:10;2.70;;;1.90;;
63975;SDS011;50167;47.958;21.780;2024-01-07T11:21:40;5.62;;;2.37;;
63975;SDS011;50167;47.958;21.780;2024-01-07T11:24:06;2.17;;;1.63;;
63975;SDS011;50167;47.958;21.780;2024-01-07T11:26:32;2.50;;;2.00;;
63975;SDS011;50167;47.958;21.780;2024-01-07T11:29:00;2.70;;;2.13;;
63975;SDS011;50167;47.958;21.780;2024-01-07T11:35:01;4.57;;;2.80;;
63975;SDS011;50167;47.958;21.780;2024-01-07T11:37:12;3.83;;;2.50;;
63975;SDS011;50167;47.958;21.780;2024-01-07T11:39:42;3.47;;;1.97;;
63975;SDS011;50167;47.958;21.780;2024-01-07T11:42:12;4.57;;;2.70;;
63975;SDS011;50167;47.958;21.780;2024-01-07T11:44:44;4.53;;;2.73;;
63975;SDS011;50167;47.958;21.780;2024-01-07T11:47:21;4.43;;;2.63;;
63975;SDS011;50167;47.958;21.780;2024-01-07T11:49:49;4.40;;;3.00;;
63975;SDS011;50167;47.958;21.780;2024-01-07T11:52:15;6.63;;;4.73;;
63975;SDS011;50167;47.958;21.780;2024-01-07T11:54:42;3.77;;;2.63;;
63975;SDS011;50167;47.958;21.780;2024-01-07T11:57:09;3.73;;;2.37;;
63975;SDS011;50167;47.958;21.780;2024-01-07T11:59:36;6.10;;;3.53;;
63975;SDS011;50167;47.958;21.780;2024-01-07T12:02:03;5.87;;;3.10;;
63975;SDS011;50167;47.958;21.780;2024-01-07T12:04:33;4.77;;;3.60;;
63975;SDS011;50167;47.958;21.780;2024-01-07T12:06:59;6.23;;;3.30;;
63975;SDS011;50167;47.958;21.780;2024-01-07T12:09:27;7.53;;;3.27;;
63975;SDS011;50167;47.958;21.780;2024-01-07T12:11:53;5.13;;;3.07;;
63975;SDS011;50167;47.958;21.780;2024-01-07T12:14:21;4.63;;;2.67;;
63975;SDS011;50167;47.958;21.780;2024-01-07T12:16:48;3.50;;;2.53;;
63975;SDS011;50167;47.958;21.780;2024-01-07T12:19:16;6.53;;;2.43;;
63975;SDS011;50167;47.958;21.780;2024-01-07T12:21:43;8.77;;;3.80;;
63975;SDS011;50167;47.958;21.780;2024-01-07T12:24:10;3.37;;;2.53;;
63975;SDS011;50167;47.958;21.780;2024-01-07T12:26:39;8.60;;;3.60;;
63975;SDS011;50167;47.958;21.780;2024-01-07T12:29:07;3.67;;;2.20;;
63975;SDS011;50167;47.958;21.780;2024-01-07T12:31:34;4.63;;;2.60;;
63975;SDS011;50167;47.958;21.780;2024-01-07T12:34:02;3.93;;;2.47;;
63975;SDS011;50167;47.958;21.780;2024-01-07T12:36:30;4.27;;;2.57;;
63975;SDS011;50167;47.958;21.780;2024-01-07T12:39:00;4.65;;;2.50;;
63975;SDS011;50167;47.958;21.780;2024-01-07T12:45:28;3.40;;;2.10;;
63975;SDS011;50167;47.958;21.780;2024-01-07T12:47:55;4.17;;;2.67;;
63975;SDS011;50167;47.958;21.780;2024-01-07T12:50:24;3.90;;;2.30;;
63975;SDS011;50167;47.958;21.780;2024-01-07T12:52:53;3.30;;;2.20;;
63975;SDS011;50167;47.958;21.780;2024-01-07T12:55:20;4.60;;;2.60;;
63975;SDS011;50167;47.958;21.780;2024-01-07T12:57:47;7.23;;;2.63;;
63975;SDS011;50167;47.958;21.780;2024-01-07T13:00:15;4.17;;;2.67;;
63975;SDS011;50167;47.958;21.780;2024-01-07T13:02:43;4.07;;;2.53;;
63975;SDS011;50167;47.958;21.780;2024-01-07T13:05:10;3.97;;;2.23;;
63975;SDS011;50167;47.958;21.780;2024-01-07T13:07:38;4.60;;;2.40;;
63975;SDS011;50167;47.958;21.780;2024-01-07T13:10:05;2.73;;;2.20;;
63975;SDS011;50167;47.958;21.780;2024-01-07T13:12:33;3.20;;;2.10;;
63975;SDS011;50167;47.958;21.780;2024-01-07T13:15:01;3.73;;;2.13;;
63975;SDS011;50167;47.958;21.780;2024-01-07T13:17:30;2.83;;;2.27;;
63975;SDS011;50167;47.958;21.780;2024-01-07T13:19:59;3.67;;;2.53;;
63975;SDS011;50167;47.958;21.780;2024-01-07T13:22:27;5.67;;;3.33;;
63975;SDS011;50167;47.958;21.780;2024-01-07T13:24:54;3.83;;;2.60;;
63975;SDS011;50167;47.958;21.780;2024-01-07T13:27:23;5.93;;;3.30;;
63975;SDS011;50167;47.958;21.780;2024-01-07T13:29:50;4.13;;;2.77;;
63975;SDS011;50167;47.958;21.780;2024-01-07T13:32:17;3.67;;;2.50;;
63975;SDS011;50167;47.958;21.780;2024-01-07T13:34:45;5.70;;;3.27;;
63975;SDS011;50167;47.958;21.780;2024-01-07T13:37:12;11.30;;;3.87;;
63975;SDS011;50167;47.958;21.780;2024-01-07T13:39:41;4.37;;;2.60;;
63975;SDS011;50167;47.958;21.780;2024-01-07T13:42:08;3.90;;;2.77;;
63975;SDS011;50167;47.958;21.780;2024-01-07T13:44:35;4.80;;;2.10;;
63975;SDS011;50167;47.958;21.780;2024-01-07T13:47:04;4.97;;;2.83;;
63975;SDS011;50167;47.958;21.780;2024-01-07T13:49:32;5.43;;;2.30;;
63975;SDS011;50167;47.958;21.780;2024-01-07T13:51:59;5.80;;;3.10;;
63975;SDS011;50167;47.958;21.780;2024-01-07T13:54:26;6.93;;;3.70;;
63975;SDS011;50167;47.958;21.780;2024-01-07T13:56:53;4.43;;;2.77;;
63975;SDS011;50167;47.958;21.780;2024-01-07T13:59:20;7.87;;;3.70;;
63975;SDS011;50167;47.958;21.780;2024-01-07T14:01:49;4.80;;;2.87;;
63975;SDS011;50167;47.958;21.780;2024-01-07T14:04:16;8.17;;;3.97;;
63975;SDS011;50167;47.958;21.780;2024-01-07T14:06:44;6.97;;;3.40;;
63975;SDS011;50167;47.958;21.780;2024-01-07T14:09:13;5.70;;;3.50;;
63975;SDS011;50167;47.958;21.780;2024-01-07T14:11:41;4.97;;;3.43;;
63975;SDS011;50167;47.958;21.780;2024-01-07T14:14:08;4.37;;;3.07;;
63975;SDS011;50167;47.958;21.780;2024-01-07T14:16:35;4.93;;;3.27;;
63975;SDS011;50167;47.958;21.780;2024-01-07T14:19:03;6.70;;;4.33;;
63975;SDS011;50167;47.958;21.780;2024-01-07T14:21:30;12.00;;;3.23;;
63975;SDS011;50167;47.958;21.780;2024-01-07T14:23:57;11.63;;;3.80;;
63975;SDS011;50167;47.958;21.780;2024-01-07T14:26:24;4.97;;;3.47;;
63975;SDS011;50167;47.958;21.780;2024-01-07T14:28:51;8.27;;;3.13;;
63975;SDS011;50167;47.958;21.780;2024-01-07T14:31:19;6.70;;;3.20;;
63975;SDS011;50167;47.958;21.780;2024-01-07T14:33:47;6.77;;;3.93;;
63975;SDS011;50167;47.958;21.780;2024-01-07T14:36:14;6.53;;;3.50;;
63975;SDS011;50167;47.958;21.780;2024-01-07T14:38:43;8.60;;;4.13;;
63975;SDS011;50167;47.958;21.780;2024-01-07T14:41:12;5.97;;;3.40;;